Time;durP1;ratioP1;P1;durP2;ratioP2;P2;SDS_P1;SDS_P2;PMS_P1;PMS_P2;Temp;Humidity;BMP_temperature;BMP_pressure;BME280_temperature;BME280_humidity;BME280_pressure;Samples;Min_cycle;Max_cycle;Signal;HPM_P1;HPM_P2
2023/09/18 00:02:11;;;;;;;15.37;9.20;;;;;19.90;100246.00;;;;4917473;29;20813;-70
2023/09/18 00:04:59;;;;;;;11.73;8.90;;;;;19.90;100244.00;;;;4920149;29;20249;-70
2023/09/18 00:07:46;;;;;;;11.80;8.30;;;;;19.90;100229.00;;;;4923070;29;20246;-69
2023/09/18 00:10:32;;;;;;;13.17;8.40;;;;;19.90;100227.00;;;;4919017;29;20254;-70
2023/09/18 00:13:18;;;;;;;10.47;8.10;;;;;19.90;100218.00;;;;4915063;29;20612;-70
2023/09/18 00:16:04;;;;;;;12.00;8.70;;;;;19.80;100209.00;;;;4919233;28;20226;-70
2023/09/18 00:18:51;;;;;;;12.57;8.33;;;;;19.90;100216.00;;;;4923312;28;20642;-69
2023/09/18 00:21:39;;;;;;;13.13;7.80;;;;;19.90;100209.00;;;;4918599;29;20242;-74
2023/09/18 00:24:25;;;;;;;11.10;7.70;;;;;19.80;100214.00;;;;4925681;29;20235;-69
2023/09/18 00:27:12;;;;;;;12.00;8.03;;;;;19.80;100209.00;;;;4922150;28;20304;-70
2023/09/18 00:29:58;;;;;;;12.23;7.77;;;;;19.80;100205.00;;;;4920449;29;20246;-69
2023/09/18 00:32:46;;;;;;;11.63;7.87;;;;;19.70;100197.00;;;;4921220;28;20239;-69
2023/09/18 00:35:33;;;;;;;11.07;8.30;;;;;19.80;100195.00;;;;4920776;28;20229;-70
2023/09/18 00:38:21;;;;;;;9.80;7.93;;;;;19.70;100190.00;;;;4914070;29;20230;-67
2023/09/18 00:41:07;;;;;;;13.07;9.20;;;;;19.80;100195.00;;;;4917613;29;20708;-69
2023/09/18 00:43:53;;;;;;;12.40;8.57;;;;;19.80;100188.00;;;;4916899;29;20241;-70
2023/09/18 00:46:40;;;;;;;12.07;8.77;;;;;19.70;100171.00;;;;4909951;29;20269;-70
2023/09/18 00:49:26;;;;;;;11.93;8.17;;;;;19.70;100176.00;;;;4932649;28;20237;-71
2023/09/18 00:52:13;;;;;;;10.70;9.23;;;;;19.70;100166.00;;;;4921330;28;20614;-69
2023/09/18 00:55:01;;;;;;;13.43;9.03;;;;;19.80;100152.00;;;;4922240;29;20245;-70
2023/09/18 00:57:48;;;;;;;14.90;8.60;;;;;19.80;100158.00;;;;4921197;29;20311;-69
2023/09/18 01:00:34;;;;;;;14.03;9.50;;;;;19.80;100140.00;;;;4912666;29;20257;-71
2023/09/18 01:03:22;;;;;;;11.73;9.03;;;;;19.80;100139.00;;;;4920752;29;20804;-71
2023/09/18 01:06:08;;;;;;;11.60;8.67;;;;;19.80;100138.00;;;;4921134;29;20234;-67
2023/09/18 01:08:54;;;;;;;12.80;9.00;;;;;19.80;100135.00;;;;4912420;29;20266;-70
2023/09/18 01:11:50;;;;;;;10.97;8.83;;;;;19.80;100140.00;;;;4928056;29;20230;-71
2023/09/18 01:14:42;;;;;;;11.80;9.60;;;;;19.90;100129.00;;;;4914935;28;20359;-67
2023/09/18 01:17:30;;;;;;;12.20;8.87;;;;;19.90;100122.00;;;;4930139;28;20301;-69
2023/09/18 01:20:16;;;;;;;11.83;9.07;;;;;19.80;100119.00;;;;4930074;29;20238;-69
2023/09/18 01:23:04;;;;;;;12.93;9.53;;;;;19.80;100114.00;;;;4925013;28;21030;-70
2023/09/18 01:25:50;;;;;;;13.53;9.17;;;;;19.80;100123.00;;;;4926234;29;20235;-69
2023/09/18 01:28:36;;;;;;;11.97;8.27;;;;;19.80;100113.00;;;;4929172;29;20237;-68
2023/09/18 01:31:23;;;;;;;10.80;8.73;;;;;19.80;100109.00;;;;4927728;29;20347;-69
2023/09/18 01:34:10;;;;;;;12.53;8.77;;;;;19.90;100105.00;;;;4920120;28;20598;-69
2023/09/18 01:36:58;;;;;;;11.70;8.73;;;;;19.80;100087.00;;;;4923208;29;20237;-71
2023/09/18 01:39:48;;;;;;;13.30;9.17;;;;;19.80;100087.00;;;;4916503;28;20728;-70
2023/09/18 01:42:35;;;;;;;13.83;8.53;;;;;19.70;100079.00;;;;4912619;29;20242;-69
2023/09/18 01:45:21;;;;;;;12.90;8.80;;;;;19.70;100088.00;;;;4918539;29;20240;-67
2023/09/18 01:48:08;;;;;;;12.53;8.63;;;;;19.70;100082.00;;;;4919893;28;20239;-68
2023/09/18 01:50:54;;;;;;;13.97;7.80;;;;;19.70;100079.00;;;;4920343;28;20230;-68
2023/09/18 01:53:41;;;;;;;10.73;8.87;;;;;19.70;100084.00;;;;4922347;29;20634;-70
2023/09/18 01:56:28;;;;;;;12.63;9.13;;;;;19.70;100076.00;;;;4925536;28;20229;-69
2023/09/18 01:59:16;;;;;;;11.17;8.57;;;;;19.70;100074.00;;;;4927725;29;20233;-69
2023/09/18 02:02:03;;;;;;;14.43;8.63;;;;;19.70;100063.00;;;;4923129;29;20229;-68
2023/09/18 02:04:50;;;;;;;12.63;8.23;;;;;19.70;100064.00;;;;4919819;29;20286;-70
2023/09/18 02:07:56;;;;;;;12.97;8.63;;;;;19.70;100057.00;;;;4923119;29;20234;-70
2023/09/18 02:10:42;;;;;;;11.93;8.30;;;;;19.70;100046.00;;;;4921722;28;20601;-68
2023/09/18 02:13:30;;;;;;;11.23;8.53;;;;;19.70;100040.00;;;;4927143;28;20233;-71
2023/09/18 02:16:16;;;;;;;14.43;8.50;;;;;19.70;100040.00;;;;4921282;28;20307;-69
2023/09/18 02:19:03;;;;;;;9.23;8.10;;;;;19.70;100033.00;;;;4918792;28;20729;-68
2023/09/18 02:21:50;;;;;;;12.70;8.30;;;;;19.70;100039.00;;;;4914690;29;20234;-70
2023/09/18 02:24:36;;;;;;;12.07;8.30;;;;;19.70;100035.00;;;;4910116;29;20618;-70
2023/09/18 02:27:22;;;;;;;12.53;8.00;;;;;19.80;100030.00;;;;4920530;29;20721;-71
2023/09/18 02:30:11;;;;;;;11.33;8.63;;;;;19.80;100022.00;;;;4914896;29;20373;-71
2023/09/18 02:32:58;;;;;;;12.47;8.73;;;;;19.80;100028.00;;;;4918262;29;20714;-69
2023/09/18 02:35:44;;;;;;;12.53;8.37;;;;;19.80;100014.00;;;;4920280;29;20259;-69
2023/09/18 02:38:30;;;;;;;12.37;8.50;;;;;19.80;100021.00;;;;4922336;29;20261;-70
2023/09/18 02:41:17;;;;;;;13.27;7.80;;;;;19.90;100004.00;;;;4924806;29;20233;-70
2023/09/18 02:44:04;;;;;;;11.27;7.87;;;;;19.90;100001.00;;;;4922759;29;20417;-70
2023/09/18 02:46:52;;;;;;;11.20;7.43;;;;;19.80;99994.00;;;;4919422;28;20231;-70
2023/09/18 02:49:38;;;;;;;12.87;7.87;;;;;19.80;99993.00;;;;4923725;29;20715;-69
2023/09/18 02:52:25;;;;;;;12.67;8.13;;;;;19.80;99983.00;;;;4916029;29;20235;-70
2023/09/18 02:55:11;;;;;;;10.87;7.33;;;;;19.80;99977.00;;;;4918793;28;20290;-70
2023/09/18 02:57:58;;;;;;;12.63;7.37;;;;;19.80;99963.00;;;;4923764;29;20235;-70
2023/09/18 03:00:46;;;;;;;10.43;7.57;;;;;19.80;99957.00;;;;4927318;28;20235;-70
2023/09/18 03:03:34;;;;;;;10.13;7.30;;;;;19.80;99953.00;;;;4918885;29;20727;-72
2023/09/18 03:06:20;;;;;;;9.50;6.90;;;;;19.70;99946.00;;;;4926356;29;20265;-71
2023/09/18 03:09:06;;;;;;;10.60;7.23;;;;;19.70;99934.00;;;;4919019;29;20322;-71
2023/09/18 03:11:53;;;;;;;9.63;7.20;;;;;19.70;99924.00;;;;4928159;29;22183;-70
2023/09/18 03:14:39;;;;;;;10.83;7.73;;;;;19.70;99917.00;;;;4913638;29;20237;-70
2023/09/18 03:17:26;;;;;;;13.97;8.33;;;;;19.70;99920.00;;;;4910077;29;20611;-70
2023/09/18 03:20:14;;;;;;;15.67;8.30;;;;;19.60;99905.00;;;;4918604;28;20812;-70
2023/09/18 03:23:02;;;;;;;9.27;7.57;;;;;19.60;99900.00;;;;4916554;28;20386;-71
2023/09/18 03:25:49;;;;;;;11.30;7.17;;;;;19.60;99923.00;;;;4918077;29;20285;-70
2023/09/18 03:28:37;;;;;;;11.60;7.23;;;;;19.60;99917.00;;;;4919862;29;20366;-69
2023/09/18 03:31:23;;;;;;;10.73;7.37;;;;;19.60;99924.00;;;;4923876;28;20297;-70
2023/09/18 03:34:09;;;;;;;10.60;7.57;;;;;19.60;99900.00;;;;4913621;29;20338;-69
2023/09/18 03:36:57;;;;;;;10.00;7.43;;;;;19.60;99899.00;;;;4921427;29;20978;-70
2023/09/18 03:39:43;;;;;;;9.73;7.33;;;;;19.60;99900.00;;;;4907217;29;20238;-69
2023/09/18 03:42:30;;;;;;;12.40;7.30;;;;;19.60;99892.00;;;;4929324;29;20305;-69
2023/09/18 03:45:18;;;;;;;10.27;7.30;;;;;19.60;99882.00;;;;4922789;29;20313;-70
2023/09/18 03:48:05;;;;;;;12.00;7.63;;;;;19.50;99874.00;;;;4927745;29;20226;-70
2023/09/18 03:50:51;;;;;;;12.23;7.40;;;;;19.50;99872.00;;;;4919823;29;20249;-69
2023/09/18 03:53:39;;;;;;;7.83;6.80;;;;;19.60;99868.00;;;;4903795;29;20236;-70
2023/09/18 03:56:25;;;;;;;8.57;7.17;;;;;19.60;99865.00;;;;4926438;29;20255;-68
2023/09/18 03:59:11;;;;;;;9.37;6.50;;;;;19.60;99875.00;;;;4921512;29;20307;-70
2023/09/18 04:01:58;;;;;;;11.60;7.33;;;;;19.50;99859.00;;;;4924297;29;20732;-70
2023/09/18 04:04:44;;;;;;;10.23;7.30;;;;;19.60;99854.00;;;;4922574;29;20263;-70
2023/09/18 04:07:31;;;;;;;14.50;8.17;;;;;19.60;99844.00;;;;4915621;29;20676;-69
2023/09/18 04:10:22;;;;;;;12.13;7.40;;;;;19.60;99827.00;;;;4918919;29;20901;-70
2023/09/18 04:13:09;;;;;;;9.90;7.40;;;;;19.60;99827.00;;;;4916821;29;20241;-70
2023/09/18 04:15:56;;;;;;;12.80;8.03;;;;;19.60;99824.00;;;;4919704;29;20617;-71
2023/09/18 04:18:43;;;;;;;11.57;7.00;;;;;19.60;99818.00;;;;4916248;29;20242;-70
2023/09/18 04:21:30;;;;;;;10.23;6.87;;;;;19.60;99809.00;;;;4920194;29;20237;-69
2023/09/18 04:24:16;;;;;;;11.17;6.97;;;;;19.60;99809.00;;;;4920796;28;20290;-69
2023/09/18 04:27:04;;;;;;;11.23;8.00;;;;;19.60;99824.00;;;;4912546;29;20855;-69
2023/09/18 04:29:51;;;;;;;8.53;6.77;;;;;19.60;99811.00;;;;4922621;28;20245;-73
2023/09/18 04:32:38;;;;;;;9.77;7.70;;;;;19.70;99801.00;;;;4917763;29;20240;-70
2023/09/18 04:35:25;;;;;;;13.97;7.67;;;;;19.60;99793.00;;;;4924153;29;20241;-71
2023/09/18 04:38:14;;;;;;;10.10;7.27;;;;;19.60;99799.00;;;;4917166;29;20265;-70
2023/09/18 04:41:01;;;;;;;10.40;6.93;;;;;19.60;99806.00;;;;4908111;29;20245;-69
2023/09/18 04:43:50;;;;;;;9.70;7.47;;;;;19.60;99822.00;;;;4913960;29;20266;-70
2023/09/18 04:46:36;;;;;;;13.13;8.50;;;;;19.60;99806.00;;;;4918550;29;20246;-70
2023/09/18 04:49:23;;;;;;;10.27;7.23;;;;;19.50;99818.00;;;;4915563;28;20230;-69
2023/09/18 04:52:10;;;;;;;10.33;6.80;;;;;19.60;99828.00;;;;4924787;28;20764;-69
2023/09/18 04:54:57;;;;;;;8.93;6.93;;;;;19.60;99835.00;;;;4915737;29;20249;-68
2023/09/18 04:57:44;;;;;;;12.77;7.80;;;;;19.60;99838.00;;;;4916941;29;20737;-70
2023/09/18 05:00:33;;;;;;;12.93;8.07;;;;;19.60;99844.00;;;;4924345;29;20237;-69
2023/09/18 05:03:19;;;;;;;10.53;7.10;;;;;19.50;99832.00;;;;4916744;29;20233;-68
2023/09/18 05:06:06;;;;;;;10.20;7.53;;;;;19.50;99824.00;;;;4916608;28;20237;-70
2023/09/18 05:08:54;;;;;;;10.70;7.23;;;;;19.50;99820.00;;;;4917549;29;20386;-68
2023/09/18 05:11:41;;;;;;;11.37;7.03;;;;;19.60;99817.00;;;;4923074;29;20370;-70
2023/09/18 05:14:28;;;;;;;9.57;7.17;;;;;19.50;99827.00;;;;4915975;29;20241;-69
2023/09/18 05:17:17;;;;;;;12.83;7.13;;;;;19.50;99846.00;;;;4914095;29;20593;-70
2023/09/18 05:20:07;;;;;;;13.13;7.20;;;;;19.50;99855.00;;;;4912743;28;20240;-69
2023/09/18 05:22:55;;;;;;;9.63;7.43;;;;;19.50;99862.00;;;;4919724;28;20272;-70
2023/09/18 05:25:44;;;;;;;14.97;7.27;;;;;19.50;99860.00;;;;4918079;29;20309;-70
2023/09/18 05:28:30;;;;;;;14.50;7.60;;;;;19.50;99867.00;;;;4918852;29;20618;-73
2023/09/18 05:31:16;;;;;;;10.50;7.50;;;;;19.60;99868.00;;;;4926101;28;20226;-72
2023/09/18 05:34:06;;;;;;;11.97;7.03;;;;;19.70;99865.00;;;;4924501;28;20627;-71
2023/09/18 05:36:52;;;;;;;10.93;7.17;;;;;19.70;99846.00;;;;4913511;29;20244;-72
2023/09/18 05:39:38;;;;;;;12.20;6.83;;;;;19.70;99837.00;;;;4910348;29;20242;-70
2023/09/18 05:42:25;;;;;;;12.27;7.23;;;;;19.80;99837.00;;;;4927001;29;20605;-72
2023/09/18 05:45:12;;;;;;;10.47;6.53;;;;;19.70;99820.00;;;;4916853;29;20258;-71
2023/09/18 05:48:03;;;;;;;11.73;6.60;;;;;19.80;99827.00;;;;4924568;29;20233;-71
2023/09/18 05:50:53;;;;;;;9.77;6.43;;;;;19.80;99836.00;;;;4929190;28;20300;-68
2023/09/18 05:53:40;;;;;;;9.47;5.93;;;;;19.80;99840.00;;;;4918599;29;20290;-70
2023/09/18 05:56:26;;;;;;;10.27;6.47;;;;;19.80;99827.00;;;;4916547;29;20241;-70
2023/09/18 05:59:15;;;;;;;11.40;5.77;;;;;19.80;99842.00;;;;4920599;29;20971;-68
2023/09/18 06:02:02;;;;;;;10.77;6.30;;;;;19.90;99834.00;;;;4917604;29;20833;-73
2023/09/18 06:04:49;;;;;;;10.43;6.03;;;;;19.80;99850.00;;;;4920826;28;20297;-70
2023/09/18 06:07:36;;;;;;;10.33;5.80;;;;;19.90;99847.00;;;;4920001;29;20249;-71
2023/09/18 06:10:23;;;;;;;12.43;6.27;;;;;20.00;99859.00;;;;4922215;29;20320;-71
2023/09/18 06:13:10;;;;;;;9.17;6.10;;;;;20.00;99862.00;;;;4927116;29;20861;-73
2023/09/18 06:15:56;;;;;;;12.73;5.93;;;;;20.00;99848.00;;;;4917348;28;20241;-72
2023/09/18 06:18:43;;;;;;;10.73;5.70;;;;;20.10;99856.00;;;;4924040;29;20289;-74
2023/09/18 06:21:30;;;;;;;7.43;5.07;;;;;20.20;99866.00;;;;4919984;29;20371;-73
2023/09/18 06:24:18;;;;;;;11.67;5.57;;;;;20.30;99850.00;;;;4918457;29;20233;-72
2023/09/18 06:27:05;;;;;;;6.67;5.10;;;;;20.30;99854.00;;;;4922771;29;20247;-72
2023/09/18 06:29:51;;;;;;;7.33;5.20;;;;;20.40;99860.00;;;;4922875;29;20396;-71
2023/09/18 06:32:37;;;;;;;9.87;4.93;;;;;20.30;99868.00;;;;4923885;29;20234;-71
2023/09/18 06:35:24;;;;;;;11.47;5.00;;;;;20.40;99870.00;;;;4928180;29;20239;-71
2023/09/18 06:38:12;;;;;;;12.77;5.20;;;;;20.40;99886.00;;;;4926881;29;20249;-72
2023/09/18 06:41:00;;;;;;;9.07;4.50;;;;;20.50;99881.00;;;;4924527;29;20355;-72
2023/09/18 06:43:46;;;;;;;10.27;4.73;;;;;20.60;99877.00;;;;4919305;29;20307;-72
2023/09/18 06:46:33;;;;;;;9.00;4.30;;;;;20.70;99864.00;;;;4928941;28;20242;-72
2023/09/18 06:49:19;;;;;;;11.40;4.77;;;;;20.70;99880.00;;;;4925908;28;20234;-72
2023/09/18 06:52:06;;;;;;;8.80;4.30;;;;;20.80;99881.00;;;;4924275;29;20235;-72
2023/09/18 06:54:53;;;;;;;6.17;3.93;;;;;20.90;99874.00;;;;4920732;29;20735;-71
2023/09/18 06:57:41;;;;;;;7.63;4.30;;;;;20.90;99871.00;;;;4926774;29;20238;-72
2023/09/18 07:00:27;;;;;;;11.07;4.20;;;;;21.00;99866.00;;;;4923311;28;20254;-71
2023/09/18 07:03:13;;;;;;;7.33;4.07;;;;;21.00;99884.00;;;;4925351;29;20423;-72
2023/09/18 07:06:00;;;;;;;7.60;3.97;;;;;21.00;99896.00;;;;4919706;28;20244;-72
2023/09/18 07:08:47;;;;;;;11.23;3.97;;;;;21.10;99884.00;;;;4927577;29;20243;-71
2023/09/18 07:11:33;;;;;;;5.87;3.70;;;;;21.20;99895.00;;;;4926140;29;20713;-71
2023/09/18 07:14:21;;;;;;;11.80;4.23;;;;;21.20;99898.00;;;;4921787;29;20236;-71
2023/09/18 07:17:07;;;;;;;9.73;4.10;;;;;21.20;99909.00;;;;4926248;29;20260;-68
2023/09/18 07:19:54;;;;;;;6.30;3.60;;;;;21.20;99910.00;;;;4916152;29;20240;-70
2023/09/18 07:22:40;;;;;;;9.63;3.70;;;;;21.20;99914.00;;;;4906188;29;20240;-70
2023/09/18 07:25:26;;;;;;;8.40;3.67;;;;;21.30;99926.00;;;;4923141;29;20629;-71
2023/09/18 07:28:17;;;;;;;7.77;3.33;;;;;21.30;99921.00;;;;4922487;28;20247;-71
2023/09/18 07:31:09;;;;;;;8.67;3.37;;;;;21.30;99927.00;;;;4918529;28;20320;-71
2023/09/18 07:33:55;;;;;;;5.27;3.33;;;;;21.30;99921.00;;;;4914254;29;20248;-70
2023/09/18 07:36:44;;;;;;;6.30;3.17;;;;;21.40;99921.00;;;;4918271;28;20303;-71
2023/09/18 07:39:31;;;;;;;10.53;3.13;;;;;21.50;99917.00;;;;4929082;28;20236;-70
2023/09/18 07:42:17;;;;;;;4.20;2.80;;;;;21.50;99899.00;;;;4923633;29;20309;-73
2023/09/18 07:45:05;;;;;;;9.70;2.97;;;;;21.60;99920.00;;;;4920744;29;20285;-69
2023/09/18 07:47:52;;;;;;;8.17;2.90;;;;;21.60;99920.00;;;;4919908;29;20276;-72
2023/09/18 07:50:44;;;;;;;5.40;3.10;;;;;21.60;99930.00;;;;4924430;28;20348;-70
2023/09/18 07:53:32;;;;;;;5.90;3.10;;;;;21.60;99938.00;;;;4920303;28;20233;-70
2023/09/18 07:56:18;;;;;;;6.23;2.83;;;;;21.50;99936.00;;;;4917018;29;20231;-71
2023/09/18 07:59:05;;;;;;;6.13;2.83;;;;;21.50;99937.00;;;;4925465;29;20232;-72
2023/09/18 08:01:51;;;;;;;5.87;3.00;;;;;21.50;99942.00;;;;4917454;29;20698;-73
2023/09/18 08:04:39;;;;;;;6.23;2.80;;;;;21.40;99922.00;;;;4916568;29;20259;-69
2023/09/18 08:07:25;;;;;;;5.77;2.90;;;;;21.40;99934.00;;;;4923265;28;20233;-71
2023/09/18 08:10:12;;;;;;;6.70;2.83;;;;;21.50;99940.00;;;;4923656;29;20232;-70
2023/09/18 08:12:58;;;;;;;4.63;3.00;;;;;21.40;99932.00;;;;4919181;29;20806;-70
2023/09/18 08:15:45;;;;;;;5.07;2.80;;;;;21.40;99940.00;;;;4924730;29;20368;-69
2023/09/18 08:18:32;;;;;;;6.63;2.77;;;;;21.50;99956.00;;;;4922226;28;20376;-72
2023/09/18 08:21:19;;;;;;;8.00;2.80;;;;;21.40;99968.00;;;;4925824;28;20364;-68
2023/09/18 08:24:06;;;;;;;5.27;2.70;;;;;21.40;99975.00;;;;4910842;29;20258;-72
2023/09/18 08:26:53;;;;;;;5.37;2.63;;;;;21.40;99955.00;;;;4916075;29;20249;-72
2023/09/18 08:29:40;;;;;;;6.27;2.97;;;;;21.40;99943.00;;;;4923867;29;20248;-70
2023/09/18 08:32:26;;;;;;;5.23;2.83;;;;;21.50;99966.00;;;;4918084;29;20235;-72
2023/09/18 08:35:12;;;;;;;8.83;3.33;;;;;21.50;99972.00;;;;4921624;29;20240;-72
2023/09/18 08:38:00;;;;;;;4.13;2.93;;;;;21.50;99973.00;;;;4914595;29;20244;-73
2023/09/18 08:40:46;;;;;;;7.80;3.30;;;;;21.50;99979.00;;;;4920067;29;20672;-74
2023/09/18 08:43:34;;;;;;;6.03;3.17;;;;;21.50;99978.00;;;;4927236;29;20750;-73
2023/09/18 08:46:21;;;;;;;5.40;3.10;;;;;21.50;99972.00;;;;4924253;29;20229;-71
2023/09/18 08:49:08;;;;;;;3.53;2.77;;;;;21.50;99980.00;;;;4930056;28;20262;-75
2023/09/18 08:51:56;;;;;;;7.17;2.90;;;;;21.50;99981.00;;;;4922608;29;20243;-71
2023/09/18 08:54:44;;;;;;;7.40;2.60;;;;;21.70;99966.00;;;;4926763;29;20734;-72
2023/09/18 08:57:32;;;;;;;3.83;2.40;;;;;21.70;99963.00;;;;4924371;29;20228;-69
2023/09/18 09:00:18;;;;;;;6.93;2.37;;;;;21.80;99970.00;;;;4915984;29;20237;-72
2023/09/18 09:03:05;;;;;;;6.93;2.73;;;;;21.90;99965.00;;;;4920856;29;20256;-73
2023/09/18 09:05:52;;;;;;;3.63;2.30;;;;;21.90;99967.00;;;;4919348;29;20248;-73
2023/09/18 09:08:39;;;;;;;3.37;2.23;;;;;21.90;99972.00;;;;4915981;28;20741;-71
2023/09/18 09:11:27;;;;;;;3.07;2.43;;;;;21.90;99975.00;;;;4921335;29;20373;-72
2023/09/18 09:14:19;;;;;;;5.07;2.57;;;;;22.00;99972.00;;;;4921226;29;20327;-72
2023/09/18 09:17:06;;;;;;;3.93;2.50;;;;;22.00;99978.00;;;;4910720;29;20308;-70
2023/09/18 09:19:52;;;;;;;3.27;2.50;;;;;22.00;99977.00;;;;4915036;28;20730;-70
2023/09/18 09:22:40;;;;;;;4.97;2.30;;;;;22.10;99985.00;;;;4915461;29;20576;-72
2023/09/18 09:25:28;;;;;;;4.20;2.30;;;;;22.20;99989.00;;;;4924088;29;20236;-72
2023/09/18 09:28:16;;;;;;;3.57;2.43;;;;;22.20;99967.00;;;;4912918;29;20245;-74
2023/09/18 09:31:03;;;;;;;6.70;2.50;;;;;22.30;99969.00;;;;4922011;29;20237;-71
2023/09/18 09:33:53;;;;;;;5.63;2.50;;;;;22.30;99968.00;;;;4923226;29;20284;-75
2023/09/18 09:36:53;;;;;;;3.90;2.70;;;;;22.50;99971.00;;;;4921252;29;20235;-73
2023/09/18 09:39:52;;;;;;;3.83;2.23;;;;;22.60;99973.00;;;;4919693;29;21099;-71
2023/09/18 09:42:40;;;;;;;3.47;2.30;;;;;22.70;99978.00;;;;4913285;29;20238;-70
2023/09/18 09:45:30;;;;;;;4.07;2.43;;;;;22.60;99972.00;;;;4924372;29;20264;-67
2023/09/18 09:48:17;;;;;;;3.83;2.37;;;;;22.60;99974.00;;;;4922896;29;20364;-72
2023/09/18 09:51:03;;;;;;;6.17;2.63;;;;;22.60;99986.00;;;;4925014;29;20228;-72
2023/09/18 09:53:51;;;;;;;3.73;2.37;;;;;22.40;99988.00;;;;4918670;29;20248;-72
2023/09/18 09:56:46;;;;;;;4.47;2.70;;;;;22.40;99992.00;;;;4920389;29;20237;-72
2023/09/18 09:59:35;;;;;;;5.50;2.90;;;;;22.40;100004.00;;;;4921707;29;20236;-71
2023/09/18 10:02:22;;;;;;;3.13;2.50;;;;;22.40;100004.00;;;;4923543;29;20705;-72
2023/09/18 10:05:10;;;;;;;5.83;2.67;;;;;22.50;100006.00;;;;4926638;29;20312;-70
2023/09/18 10:08:00;;;;;;;8.33;2.73;;;;;22.60;99997.00;;;;4923448;29;20285;-71
2023/09/18 10:10:49;;;;;;;6.87;2.60;;;;;22.70;100004.00;;;;4921903;29;20232;-70
2023/09/18 10:13:42;;;;;;;4.10;2.60;;;;;22.80;100012.00;;;;4923299;29;20233;-70
2023/09/18 10:16:32;;;;;;;6.00;2.73;;;;;22.90;100008.00;;;;4925797;29;20228;-69
2023/09/18 10:19:28;;;;;;;4.07;2.63;;;;;22.90;100002.00;;;;4923214;28;20233;-70
2023/09/18 10:22:22;;;;;;;3.67;2.50;;;;;22.70;100002.00;;;;4921800;28;20236;-72
2023/09/18 10:25:17;;;;;;;2.87;2.57;;;;;22.80;100006.00;;;;4920431;28;20604;-69
2023/09/18 10:28:07;;;;;;;3.90;2.40;;;;;22.90;100005.00;;;;4921945;28;20350;-69
2023/09/18 10:30:57;;;;;;;4.40;2.40;;;;;23.00;100005.00;;;;4914284;29;20238;-69
2023/09/18 10:33:44;;;;;;;9.00;2.40;;;;;23.10;100005.00;;;;4920289;29;20291;-68
2023/09/18 10:36:34;;;;;;;3.30;2.20;;;;;23.20;99995.00;;;;4921109;29;20241;-69
2023/09/18 10:39:23;;;;;;;2.80;1.90;;;;;23.30;100002.00;;;;4923794;29;20355;-71
2023/09/18 10:42:10;;;;;;;3.10;1.90;;;;;23.40;99999.00;;;;4913177;29;20286;-69
2023/09/18 10:44:57;;;;;;;9.70;2.43;;;;;23.70;100003.00;;;;4924301;28;20237;-70
2023/09/18 10:47:46;;;;;;;2.60;2.40;;;;;23.90;100003.00;;;;4913652;29;20321;-68
2023/09/18 10:50:32;;;;;;;4.30;1.80;;;;;24.00;99999.00;;;;4920287;28;20616;-69
2023/09/18 10:53:22;;;;;;;3.77;1.70;;;;;24.00;100001.00;;;;4911329;29;20260;-68
2023/09/18 10:56:08;;;;;;;6.03;1.57;;;;;23.80;100002.00;;;;4922724;29;20229;-71
2023/09/18 10:59:00;;;;;;;2.73;1.77;;;;;23.60;99995.00;;;;4919422;29;20400;-69
2023/09/18 11:01:48;;;;;;;3.50;1.77;;;;;23.80;99995.00;;;;4925098;28;20973;-69
2023/09/18 11:04:36;;;;;;;3.63;1.90;;;;;24.00;99987.00;;;;4914656;29;20346;-69
2023/09/18 11:07:24;;;;;;;2.80;1.80;;;;;24.30;99986.00;;;;4919208;28;20232;-70
2023/09/18 11:10:29;;;;;;;2.60;1.60;;;;;24.80;100001.00;;;;4921002;29;20381;-70
2023/09/18 11:13:29;;;;;;;4.67;1.73;;;;;24.80;99994.00;;;;4919527;29;20241;-69
2023/09/18 11:16:37;;;;;;;7.20;2.07;;;;;24.80;100000.00;;;;4918315;29;20301;-70
2023/09/18 11:19:25;;;;;;;5.03;2.20;;;;;24.90;99993.00;;;;4923715;28;20300;-70
2023/09/18 11:22:13;;;;;;;4.43;3.00;;;;;25.00;99991.00;;;;4918669;28;20224;-70
2023/09/18 11:25:34;;;;;;;4.00;2.33;;;;;25.00;99995.00;;;;4925004;29;20774;-72
2023/09/18 11:28:24;;;;;;;4.93;2.37;;;;;25.10;99989.00;;;;4918347;29;20389;-68
2023/09/18 11:31:11;;;;;;;4.93;2.30;;;;;25.30;99992.00;;;;4917076;29;20318;-70
2023/09/18 11:33:58;;;;;;;4.40;2.20;;;;;25.50;99985.00;;;;4916489;29;20281;-70
2023/09/18 11:36:44;;;;;;;4.85;2.38;;;;;25.20;99990.00;;;;4927431;29;20236;-69
2023/09/18 11:39:36;;;;;;;5.65;2.50;;;;;24.90;99991.00;;;;4916548;29;20725;-66
2023/09/18 11:42:26;;;;;;;4.35;2.20;;;;;25.30;99994.00;;;;4923772;29;20240;-70
2023/09/18 11:45:18;;;;;;;6.15;2.30;;;;;25.20;99993.00;;;;4923942;29;20244;-74
2023/09/18 11:48:07;;;;;;;4.27;2.20;;;;;25.40;99982.00;;;;4922739;29;20236;-70
2023/09/18 11:50:54;;;;;;;3.47;2.17;;;;;25.50;99985.00;;;;4913615;29;20237;-69
2023/09/18 11:53:41;;;;;;;4.00;2.07;;;;;25.40;99983.00;;;;4921573;29;20240;-71
2023/09/18 11:56:28;;;;;;;2.78;2.30;;;;;25.40;99991.00;;;;4920227;29;20238;-70
2023/09/18 11:59:17;;;;;;;6.10;2.53;;;;;25.20;99982.00;;;;4927687;29;20620;-70
2023/09/18 12:02:05;;;;;;;3.97;2.28;;;;;25.20;99985.00;;;;4923104;29;20815;-70
2023/09/18 12:04:53;;;;;;;4.05;2.50;;;;;25.10;99977.00;;;;4917367;29;20375;-70
2023/09/18 12:07:43;;;;;;;4.97;2.97;;;;;25.10;99983.00;;;;4916732;29;20236;-70
2023/09/18 12:10:31;;;;;;;5.88;2.60;;;;;25.00;99987.00;;;;4920730;29;20731;-70
2023/09/18 12:13:18;;;;;;;3.73;2.33;;;;;25.00;99979.00;;;;4917222;29;20232;-71
2023/09/18 12:16:06;;;;;;;5.27;2.53;;;;;24.80;99984.00;;;;4923722;29;20233;-68
2023/09/18 12:18:52;;;;;;;4.13;2.53;;;;;24.80;99979.00;;;;4922856;29;20241;-69
2023/09/18 12:21:41;;;;;;;6.45;2.22;;;;;25.20;99977.00;;;;4925115;29;20228;-69
2023/09/18 12:24:28;;;;;;;4.43;2.60;;;;;25.30;99976.00;;;;4917125;29;20327;-70
2023/09/18 12:27:14;;;;;;;6.68;2.20;;;;;25.40;99972.00;;;;4913281;28;20245;-70
2023/09/18 12:30:01;;;;;;;3.53;2.80;;;;;25.80;99965.00;;;;4923306;29;20236;-70
2023/09/18 12:32:49;;;;;;;5.25;2.20;;;;;26.10;99966.00;;;;4910240;29;20241;-66
2023/09/18 12:35:37;;;;;;;7.57;2.60;;;;;26.10;99973.00;;;;4914139;29;20264;-69
2023/09/18 12:38:26;;;;;;;2.75;1.98;;;;;25.70;99978.00;;;;4920871;29;20241;-71
2023/09/18 12:41:13;;;;;;;3.65;2.80;;;;;25.70;99985.00;;;;4920582;29;20240;-72
2023/09/18 12:44:00;;;;;;;6.18;2.40;;;;;25.50;99972.00;;;;4920425;29;20232;-70
2023/09/18 12:46:49;;;;;;;4.40;2.53;;;;;25.20;99974.00;;;;4912929;29;20229;-70
2023/09/18 12:49:39;;;;;;;5.07;2.72;;;;;25.10;99969.00;;;;4914225;29;20263;-69
2023/09/18 12:52:26;;;;;;;7.73;2.60;;;;;25.20;99968.00;;;;4914466;29;20597;-71
2023/09/18 12:55:23;;;;;;;10.37;2.60;;;;;25.70;99968.00;;;;4914597;29;20253;-71
2023/09/18 12:58:11;;;;;;;5.78;2.75;;;;;26.10;99960.00;;;;4901404;29;20303;-71
2023/09/18 13:00:58;;;;;;;3.97;2.20;;;;;26.60;99961.00;;;;4922215;28;20252;-70
2023/09/18 13:03:46;;;;;;;5.80;2.58;;;;;27.00;99963.00;;;;4922530;29;20750;-70
2023/09/18 13:06:34;;;;;;;4.15;2.20;;;;;27.20;99959.00;;;;4916604;28;20305;-70
2023/09/18 13:09:20;;;;;;;4.93;2.00;;;;;27.30;99946.00;;;;4919789;29;20726;-70
2023/09/18 13:12:08;;;;;;;5.07;2.70;;;;;27.30;99947.00;;;;4915826;29;20248;-71
2023/09/18 13:15:04;;;;;;;3.92;2.30;;;;;27.30;99935.00;;;;4924563;29;20236;-72
2023/09/18 13:17:51;;;;;;;2.88;1.95;;;;;27.20;99943.00;;;;4926363;29;20602;-72
2023/09/18 13:20:37;;;;;;;5.88;2.40;;;;;27.30;99945.00;;;;4920628;29;20228;-71
2023/09/18 13:23:30;;;;;;;2.53;2.15;;;;;27.40;99934.00;;;;4918317;28;20836;-71
2023/09/18 13:26:17;;;;;;;6.53;2.38;;;;;27.50;99934.00;;;;4920315;29;20229;-70
2023/09/18 13:29:04;;;;;;;4.35;2.30;;;;;27.70;99930.00;;;;4915597;29;20276;-70
2023/09/18 13:31:51;;;;;;;5.38;2.13;;;;;27.90;99932.00;;;;4924932;29;20236;-69
2023/09/18 13:34:39;;;;;;;2.92;2.20;;;;;28.00;99938.00;;;;4927045;29;20236;-70
2023/09/18 13:37:26;;;;;;;3.88;1.83;;;;;28.20;99934.00;;;;4923263;29;20240;-70
2023/09/18 13:40:14;;;;;;;4.18;1.95;;;;;28.20;99919.00;;;;4921789;29;20240;-69
2023/09/18 13:43:00;;;;;;;2.47;2.00;;;;;28.20;99934.00;;;;4918099;29;20598;-70
2023/09/18 13:45:47;;;;;;;4.00;2.05;;;;;27.80;99938.00;;;;4907530;29;20810;-69
2023/09/18 13:48:33;;;;;;;6.78;2.10;;;;;27.20;99943.00;;;;4910922;29;20304;-72
2023/09/18 13:51:20;;;;;;;4.20;2.05;;;;;26.80;99921.00;;;;4911246;28;20289;-70
2023/09/18 13:54:07;;;;;;;5.93;2.20;;;;;26.50;99932.00;;;;4916569;29;20242;-71